sensor_id;sensor_type;location;lat;lon;timestamp;P1;durP1;ratioP1;P2;durP2;ratioP2
9409;SDS011;4744;52.576;13.568;2022-12-11T00:02:18;12.65;;;10.02;;
9409;SDS011;4744;52.576;13.568;2022-12-11T00:04:45;11.93;;;8.87;;
9409;SDS011;4744;52.576;13.568;2022-12-11T00:07:11;14.90;;;10.27;;
9409;SDS011;4744;52.576;13.568;2022-12-11T00:09:38;15.07;;;9.50;;
9409;SDS011;4744;52.576;13.568;2022-12-11T00:12:06;13.00;;;9.47;;
9409;SDS011;4744;52.576;13.568;2022-12-11T00:14:34;16.90;;;11.10;;
9409;SDS011;4744;52.576;13.568;2022-12-11T00:17:01;12.63;;;9.90;;
9409;SDS011;4744;52.576;13.568;2022-12-11T00:19:28;14.20;;;10.53;;
9409;SDS011;4744;52.576;13.568;2022-12-11T00:21:55;14.03;;;9.90;;
9409;SDS011;4744;52.576;13.568;2022-12-11T00:24:22;14.13;;;9.43;;
9409;SDS011;4744;52.576;13.568;2022-12-11T00:26:49;13.83;;;9.70;;
9409;SDS011;4744;52.576;13.568;2022-12-11T00:29:16;13.70;;;9.77;;
9409;SDS011;4744;52.576;13.568;2022-12-11T00:31:44;15.07;;;10.53;;
9409;SDS011;4744;52.576;13.568;2022-12-11T00:34:11;13.10;;;9.87;;
9409;SDS011;4744;52.576;13.568;2022-12-11T00:36:38;14.40;;;9.43;;
9409;SDS011;4744;52.576;13.568;2022-12-11T00:39:05;13.40;;;9.87;;
9409;SDS011;4744;52.576;13.568;2022-12-11T00:41:32;13.17;;;9.87;;
9409;SDS011;4744;52.576;13.568;2022-12-11T00:43:59;13.37;;;9.47;;
9409;SDS011;4744;52.576;13.568;2022-12-11T00:46:27;13.83;;;9.57;;
9409;SDS011;4744;52.576;13.568;2022-12-11T00:48:55;12.47;;;9.37;;
9409;SDS011;4744;52.576;13.568;2022-12-11T00:51:23;14.07;;;10.03;;
9409;SDS011;4744;52.576;13.568;2022-12-11T00:53:50;14.20;;;10.30;;
9409;SDS011;4744;52.576;13.568;2022-12-11T00:56:18;15.60;;;9.87;;
9409;SDS011;4744;52.576;13.568;2022-12-11T00:58:46;13.07;;;8.77;;
9409;SDS011;4744;52.576;13.568;2022-12-11T01:01:14;14.33;;;9.93;;
9409;SDS011;4744;52.576;13.568;2022-12-11T01:03:43;14.60;;;10.17;;
9409;SDS011;4744;52.576;13.568;2022-12-11T01:06:13;12.20;;;9.07;;
9409;SDS011;4744;52.576;13.568;2022-12-11T01:08:41;13.07;;;9.30;;
9409;SDS011;4744;52.576;13.568;2022-12-11T01:11:09;12.87;;;9.53;;
9409;SDS011;4744;52.576;13.568;2022-12-11T01:13:36;13.93;;;8.97;;
9409;SDS011;4744;52.576;13.568;2022-12-11T01:16:05;12.73;;;9.10;;
9409;SDS011;4744;52.576;13.568;2022-12-11T01:18:33;11.27;;;9.27;;
9409;SDS011;4744;52.576;13.568;2022-12-11T01:21:04;14.30;;;9.90;;
9409;SDS011;4744;52.576;13.568;2022-12-11T01:23:33;14.17;;;9.27;;
9409;SDS011;4744;52.576;13.568;2022-12-11T01:26:09;12.33;;;8.77;;
9409;SDS011;4744;52.576;13.568;2022-12-11T01:28:37;15.63;;;9.87;;
9409;SDS011;4744;52.576;13.568;2022-12-11T01:31:06;13.50;;;9.80;;
9409;SDS011;4744;52.576;13.568;2022-12-11T01:33:34;12.63;;;9.20;;
9409;SDS011;4744;52.576;13.568;2022-12-11T01:36:05;17.53;;;10.20;;
9409;SDS011;4744;52.576;13.568;2022-12-11T01:38:34;14.13;;;9.93;;
9409;SDS011;4744;52.576;13.568;2022-12-11T01:41:01;14.87;;;9.90;;
9409;SDS011;4744;52.576;13.568;2022-12-11T01:43:29;13.73;;;9.90;;
9409;SDS011;4744;52.576;13.568;2022-12-11T01:45:56;11.30;;;8.53;;
9409;SDS011;4744;52.576;13.568;2022-12-11T01:48:24;12.40;;;8.93;;
9409;SDS011;4744;52.576;13.568;2022-12-11T01:50:55;12.27;;;9.67;;
9409;SDS011;4744;52.576;13.568;2022-12-11T01:53:25;12.97;;;9.27;;
9409;SDS011;4744;52.576;13.568;2022-12-11T01:55:56;12.43;;;9.47;;
9409;SDS011;4744;52.576;13.568;2022-12-11T01:58:25;10.50;;;8.67;;
9409;SDS011;4744;52.576;13.568;2022-12-11T02:00:54;12.70;;;9.20;;
9409;SDS011;4744;52.576;13.568;2022-12-11T02:03:23;14.80;;;9.43;;
9409;SDS011;4744;52.576;13.568;2022-12-11T02:05:50;12.40;;;9.67;;
9409;SDS011;4744;52.576;13.568;2022-12-11T02:08:17;13.30;;;9.00;;
9409;SDS011;4744;52.576;13.568;2022-12-11T02:10:48;13.17;;;9.93;;
9409;SDS011;4744;52.576;13.568;2022-12-11T02:13:22;13.27;;;9.07;;
9409;SDS011;4744;52.576;13.568;2022-12-11T02:15:57;13.17;;;9.17;;
9409;SDS011;4744;52.576;13.568;2022-12-11T02:18:29;12.23;;;9.40;;
9409;SDS011;4744;52.576;13.568;2022-12-11T02:21:01;13.17;;;9.63;;
9409;SDS011;4744;52.576;13.568;2022-12-11T02:29:52;13.30;;;8.87;;
9409;SDS011;4744;52.576;13.568;2022-12-11T02:32:23;12.20;;;8.20;;
9409;SDS011;4744;52.576;13.568;2022-12-11T02:34:55;12.33;;;9.47;;
9409;SDS011;4744;52.576;13.568;2022-12-11T02:37:28;11.97;;;8.60;;
9409;SDS011;4744;52.576;13.568;2022-12-11T02:39:57;13.33;;;9.30;;
9409;SDS011;4744;52.576;13.568;2022-12-11T02:42:26;14.10;;;10.27;;
9409;SDS011;4744;52.576;13.568;2022-12-11T02:44:58;12.50;;;9.73;;
9409;SDS011;4744;52.576;13.568;2022-12-11T02:47:26;15.80;;;10.37;;
9409;SDS011;4744;52.576;13.568;2022-12-11T02:49:57;13.90;;;9.13;;
9409;SDS011;4744;52.576;13.568;2022-12-11T02:52:26;12.13;;;9.23;;
9409;SDS011;4744;52.576;13.568;2022-12-11T02:54:55;12.23;;;9.67;;
9409;SDS011;4744;52.576;13.568;2022-12-11T02:57:24;12.40;;;9.53;;
9409;SDS011;4744;52.576;13.568;2022-12-11T02:59:55;15.57;;;10.00;;
9409;SDS011;4744;52.576;13.568;2022-12-11T03:02:23;14.03;;;10.27;;
9409;SDS011;4744;52.576;13.568;2022-12-11T03:04:50;12.70;;;9.40;;
9409;SDS011;4744;52.576;13.568;2022-12-11T03:07:18;14.17;;;10.07;;
9409;SDS011;4744;52.576;13.568;2022-12-11T03:09:49;12.17;;;9.80;;
9409;SDS011;4744;52.576;13.568;2022-12-11T03:12:17;11.73;;;9.60;;
9409;SDS011;4744;52.576;13.568;2022-12-11T03:14:48;14.17;;;9.90;;
9409;SDS011;4744;52.576;13.568;2022-12-11T03:17:16;16.77;;;10.80;;
9409;SDS011;4744;52.576;13.568;2022-12-11T03:19:49;13.33;;;9.43;;
9409;SDS011;4744;52.576;13.568;2022-12-11T03:22:25;13.07;;;9.90;;
9409;SDS011;4744;52.576;13.568;2022-12-11T03:24:59;12.47;;;8.87;;
9409;SDS011;4744;52.576;13.568;2022-12-11T03:27:30;14.60;;;9.20;;
9409;SDS011;4744;52.576;13.568;2022-12-11T03:30:03;16.57;;;10.97;;
9409;SDS011;4744;52.576;13.568;2022-12-11T03:32:34;12.97;;;9.60;;
9409;SDS011;4744;52.576;13.568;2022-12-11T03:35:06;13.73;;;10.57;;
9409;SDS011;4744;52.576;13.568;2022-12-11T03:37:38;16.23;;;10.37;;
9409;SDS011;4744;52.576;13.568;2022-12-11T03:40:08;12.83;;;9.80;;
9409;SDS011;4744;52.576;13.568;2022-12-11T03:42:38;13.70;;;10.20;;
9409;SDS011;4744;52.576;13.568;2022-12-11T03:45:07;15.80;;;10.57;;
9409;SDS011;4744;52.576;13.568;2022-12-11T03:47:35;14.83;;;10.13;;
9409;SDS011;4744;52.576;13.568;2022-12-11T03:50:03;13.37;;;9.23;;
9409;SDS011;4744;52.576;13.568;2022-12-11T03:52:34;15.47;;;9.97;;
9409;SDS011;4744;52.576;13.568;2022-12-11T03:55:03;13.77;;;9.90;;
9409;SDS011;4744;52.576;13.568;2022-12-11T03:57:31;15.33;;;10.70;;
9409;SDS011;4744;52.576;13.568;2022-12-11T04:00:01;17.27;;;10.90;;
9409;SDS011;4744;52.576;13.568;2022-12-11T04:02:29;15.20;;;10.63;;
9409;SDS011;4744;52.576;13.568;2022-12-11T04:04:56;15.50;;;10.40;;
9409;SDS011;4744;52.576;13.568;2022-12-11T04:07:24;14.67;;;10.30;;
9409;SDS011;4744;52.576;13.568;2022-12-11T04:09:52;14.47;;;10.67;;
9409;SDS011;4744;52.576;13.568;2022-12-11T04:12:19;15.30;;;9.67;;
9409;SDS011;4744;52.576;13.568;2022-12-11T04:14:46;15.13;;;10.70;;
9409;SDS011;4744;52.576;13.568;2022-12-11T04:17:28;15.53;;;10.30;;
9409;SDS011;4744;52.576;13.568;2022-12-11T04:20:13;15.40;;;10.60;;
9409;SDS011;4744;52.576;13.568;2022-12-11T04:23:01;13.63;;;10.07;;
9409;SDS011;4744;52.576;13.568;2022-12-11T04:25:46;14.10;;;10.73;;
9409;SDS011;4744;52.576;13.568;2022-12-11T04:28:13;15.47;;;10.20;;
9409;SDS011;4744;52.576;13.568;2022-12-11T04:30:40;14.87;;;10.10;;
9409;SDS011;4744;52.576;13.568;2022-12-11T04:33:12;14.27;;;10.00;;
9409;SDS011;4744;52.576;13.568;2022-12-11T04:35:39;11.87;;;9.50;;
9409;SDS011;4744;52.576;13.568;2022-12-11T04:38:07;14.47;;;10.17;;
9409;SDS011;4744;52.576;13.568;2022-12-11T04:40:34;13.87;;;10.27;;
9409;SDS011;4744;52.576;13.568;2022-12-11T04:43:01;15.53;;;10.17;;
9409;SDS011;4744;52.576;13.568;2022-12-11T04:45:28;12.90;;;9.87;;
9409;SDS011;4744;52.576;13.568;2022-12-11T04:47:55;16.50;;;10.10;;
9409;SDS011;4744;52.576;13.568;2022-12-11T04:50:22;17.10;;;10.63;;
9409;SDS011;4744;52.576;13.568;2022-12-11T04:52:49;13.33;;;10.30;;
9409;SDS011;4744;52.576;13.568;2022-12-11T04:55:20;14.57;;;10.00;;
9409;SDS011;4744;52.576;13.568;2022-12-11T04:57:47;13.53;;;10.10;;
9409;SDS011;4744;52.576;13.568;2022-12-11T05:00:14;14.60;;;10.03;;
9409;SDS011;4744;52.576;13.568;2022-12-11T05:02:42;14.93;;;9.90;;
9409;SDS011;4744;52.576;13.568;2022-12-11T05:05:09;14.27;;;10.40;;
9409;SDS011;4744;52.576;13.568;2022-12-11T05:07:37;16.63;;;10.17;;
9409;SDS011;4744;52.576;13.568;2022-12-11T05:10:04;15.20;;;10.13;;
9409;SDS011;4744;52.576;13.568;2022-12-11T05:12:33;14.20;;;9.83;;
9409;SDS011;4744;52.576;13.568;2022-12-11T05:15:00;13.30;;;9.83;;
9409;SDS011;4744;52.576;13.568;2022-12-11T05:17:27;13.50;;;9.87;;
9409;SDS011;4744;52.576;13.568;2022-12-11T05:19:54;15.80;;;10.17;;
9409;SDS011;4744;52.576;13.568;2022-12-11T05:22:20;13.97;;;9.93;;
9409;SDS011;4744;52.576;13.568;2022-12-11T05:24:47;15.57;;;10.00;;
9409;SDS011;4744;52.576;13.568;2022-12-11T05:27:14;14.17;;;9.70;;
9409;SDS011;4744;52.576;13.568;2022-12-11T05:29:43;13.40;;;10.17;;
9409;SDS011;4744;52.576;13.568;2022-12-11T05:32:09;14.53;;;9.53;;
9409;SDS011;4744;52.576;13.568;2022-12-11T05:34:36;11.97;;;10.13;;
9409;SDS011;4744;52.576;13.568;2022-12-11T05:37:03;13.03;;;9.80;;
9409;SDS011;4744;52.576;13.568;2022-12-11T05:39:30;12.80;;;10.13;;
9409;SDS011;4744;52.576;13.568;2022-12-11T05:41:57;15.60;;;10.10;;
9409;SDS011;4744;52.576;13.568;2022-12-11T05:44:24;12.33;;;9.27;;
9409;SDS011;4744;52.576;13.568;2022-12-11T05:46:53;14.13;;;9.63;;
9409;SDS011;4744;52.576;13.568;2022-12-11T05:49:20;13.37;;;9.47;;
9409;SDS011;4744;52.576;13.568;2022-12-11T05:51:47;12.23;;;8.97;;
9409;SDS011;4744;52.576;13.568;2022-12-11T05:54:13;12.10;;;9.30;;
9409;SDS011;4744;52.576;13.568;2022-12-11T05:56:40;12.60;;;9.20;;
9409;SDS011;4744;52.576;13.568;2022-12-11T05:59:08;11.03;;;8.87;;
9409;SDS011;4744;52.576;13.568;2022-12-11T06:01:35;11.57;;;8.33;;
9409;SDS011;4744;52.576;13.568;2022-12-11T06:04:05;11.93;;;8.57;;
9409;SDS011;4744;52.576;13.568;2022-12-11T06:06:34;10.77;;;8.70;;
9409;SDS011;4744;52.576;13.568;2022-12-11T06:09:02;9.70;;;7.83;;
9409;SDS011;4744;52.576;13.568;2022-12-11T06:11:30;11.70;;;7.87;;
9409;SDS011;4744;52.576;13.568;2022-12-11T06:13:59;11.93;;;8.50;;
9409;SDS011;4744;52.576;13.568;2022-12-11T06:16:27;9.73;;;7.70;;
9409;SDS011;4744;52.576;13.568;2022-12-11T06:18:54;8.67;;;7.67;;
9409;SDS011;4744;52.576;13.568;2022-12-11T06:21:22;9.23;;;7.67;;
9409;SDS011;4744;52.576;13.568;2022-12-11T06:23:53;10.67;;;7.80;;
9409;SDS011;4744;52.576;13.568;2022-12-11T06:26:21;10.07;;;7.60;;
9409;SDS011;4744;52.576;13.568;2022-12-11T06:28:49;9.73;;;7.70;;
9409;SDS011;4744;52.576;13.568;2022-12-11T06:31:16;10.63;;;7.87;;
9409;SDS011;4744;52.576;13.568;2022-12-11T06:33:44;9.63;;;6.60;;
9409;SDS011;4744;52.576;13.568;2022-12-11T06:36:12;9.33;;;7.67;;
9409;SDS011;4744;52.576;13.568;2022-12-11T06:38:41;10.60;;;7.60;;
9409;SDS011;4744;52.576;13.568;2022-12-11T06:41:08;9.67;;;7.60;;
9409;SDS011;4744;52.576;13.568;2022-12-11T06:43:37;10.13;;;7.73;;
9409;SDS011;4744;52.576;13.568;2022-12-11T06:46:05;10.77;;;7.60;;
9409;SDS011;4744;52.576;13.568;2022-12-11T06:48:34;9.00;;;7.27;;
9409;SDS011;4744;52.576;13.568;2022-12-11T06:51:03;8.53;;;7.17;;
9409;SDS011;4744;52.576;13.568;2022-12-11T06:53:32;9.70;;;7.33;;
9409;SDS011;4744;52.576;13.568;2022-12-11T06:56:02;9.10;;;7.00;;
9409;SDS011;4744;52.576;13.568;2022-12-11T06:58:29;8.67;;;7.57;;
9409;SDS011;4744;52.576;13.568;2022-12-11T07:00:56;9.77;;;7.33;;
9409;SDS011;4744;52.576;13.568;2022-12-11T07:03:23;8.73;;;7.40;;
9409;SDS011;4744;52.576;13.568;2022-12-11T07:05:50;10.13;;;7.30;;
9409;SDS011;4744;52.576;13.568;2022-12-11T07:08:17;9.17;;;7.13;;
9409;SDS011;4744;52.576;13.568;2022-12-11T07:10:44;9.83;;;7.57;;
9409;SDS011;4744;52.576;13.568;2022-12-11T07:13:12;10.20;;;7.43;;
9409;SDS011;4744;52.576;13.568;2022-12-11T07:15:39;9.87;;;7.57;;
9409;SDS011;4744;52.576;13.568;2022-12-11T07:18:06;8.27;;;6.70;;
9409;SDS011;4744;52.576;13.568;2022-12-11T07:20:34;8.67;;;7.17;;
9409;SDS011;4744;52.576;13.568;2022-12-11T07:23:01;10.17;;;7.33;;
9409;SDS011;4744;52.576;13.568;2022-12-11T07:25:28;9.03;;;6.97;;
9409;SDS011;4744;52.576;13.568;2022-12-11T07:27:59;8.07;;;6.83;;
9409;SDS011;4744;52.576;13.568;2022-12-11T07:30:27;9.43;;;6.83;;
9409;SDS011;4744;52.576;13.568;2022-12-11T07:32:54;8.13;;;6.60;;
9409;SDS011;4744;52.576;13.568;2022-12-11T07:35:21;10.10;;;7.30;;
9409;SDS011;4744;52.576;13.568;2022-12-11T07:37:49;8.87;;;6.87;;
9409;SDS011;4744;52.576;13.568;2022-12-11T07:40:16;10.30;;;7.23;;
9409;SDS011;4744;52.576;13.568;2022-12-11T07:42:43;10.80;;;7.10;;
9409;SDS011;4744;52.576;13.568;2022-12-11T07:45:10;8.00;;;6.17;;
9409;SDS011;4744;52.576;13.568;2022-12-11T07:47:38;9.03;;;6.57;;
9409;SDS011;4744;52.576;13.568;2022-12-11T07:50:05;9.60;;;6.93;;
9409;SDS011;4744;52.576;13.568;2022-12-11T07:52:33;11.57;;;7.47;;
9409;SDS011;4744;52.576;13.568;2022-12-11T07:55:00;9.03;;;6.37;;
9409;SDS011;4744;52.576;13.568;2022-12-11T07:57:27;7.30;;;6.40;;
9409;SDS011;4744;52.576;13.568;2022-12-11T07:59:54;8.80;;;6.50;;
9409;SDS011;4744;52.576;13.568;2022-12-11T08:02:21;8.00;;;6.50;;
9409;SDS011;4744;52.576;13.568;2022-12-11T08:04:50;7.97;;;6.70;;
9409;SDS011;4744;52.576;13.568;2022-12-11T08:07:17;8.97;;;6.80;;
9409;SDS011;4744;52.576;13.568;2022-12-11T08:09:43;8.40;;;6.20;;
9409;SDS011;4744;52.576;13.568;2022-12-11T08:12:11;7.10;;;5.80;;
9409;SDS011;4744;52.576;13.568;2022-12-11T08:14:38;8.30;;;6.50;;
9409;SDS011;4744;52.576;13.568;2022-12-11T08:17:05;8.70;;;6.50;;
9409;SDS011;4744;52.576;13.568;2022-12-11T08:19:32;7.83;;;6.27;;
9409;SDS011;4744;52.576;13.568;2022-12-11T08:22:00;9.10;;;6.30;;
9409;SDS011;4744;52.576;13.568;2022-12-11T08:24:27;8.50;;;6.43;;
9409;SDS011;4744;52.576;13.568;2022-12-11T08:26:54;7.83;;;6.03;;
9409;SDS011;4744;52.576;13.568;2022-12-11T08:29:21;10.17;;;7.43;;
9409;SDS011;4744;52.576;13.568;2022-12-11T08:31:48;8.17;;;6.20;;
9409;SDS011;4744;52.576;13.568;2022-12-11T08:34:15;8.17;;;5.93;;
9409;SDS011;4744;52.576;13.568;2022-12-11T08:36:42;7.67;;;6.00;;
9409;SDS011;4744;52.576;13.568;2022-12-11T08:39:10;7.07;;;5.70;;
9409;SDS011;4744;52.576;13.568;2022-12-11T08:41:37;7.47;;;6.20;;
9409;SDS011;4744;52.576;13.568;2022-12-11T08:44:04;9.47;;;6.50;;
9409;SDS011;4744;52.576;13.568;2022-12-11T08:46:35;9.93;;;7.10;;
9409;SDS011;4744;52.576;13.568;2022-12-11T08:49:02;7.63;;;6.00;;
9409;SDS011;4744;52.576;13.568;2022-12-11T08:51:30;9.10;;;6.57;;
9409;SDS011;4744;52.576;13.568;2022-12-11T08:53:57;7.13;;;5.90;;
9409;SDS011;4744;52.576;13.568;2022-12-11T08:56:27;8.63;;;6.03;;
9409;SDS011;4744;52.576;13.568;2022-12-11T08:58:54;8.87;;;6.87;;
9409;SDS011;4744;52.576;13.568;2022-12-11T09:01:22;7.67;;;6.27;;
9409;SDS011;4744;52.576;13.568;2022-12-11T09:03:50;7.93;;;6.07;;
9409;SDS011;4744;52.576;13.568;2022-12-11T09:06:19;7.50;;;6.23;;
9409;SDS011;4744;52.576;13.568;2022-12-11T09:08:47;7.30;;;6.27;;
9409;SDS011;4744;52.576;13.568;2022-12-11T09:11:16;9.53;;;6.97;;
9409;SDS011;4744;52.576;13.568;2022-12-11T09:13:46;7.83;;;6.60;;
9409;SDS011;4744;52.576;13.568;2022-12-11T09:16:13;7.93;;;6.23;;
9409;SDS011;4744;52.576;13.568;2022-12-11T09:18:41;8.30;;;6.20;;
9409;SDS011;4744;52.576;13.568;2022-12-11T09:21:20;7.70;;;6.17;;
9409;SDS011;4744;52.576;13.568;2022-12-11T09:23:51;10.57;;;6.20;;
9409;SDS011;4744;52.576;13.568;2022-12-11T09:26:19;8.07;;;6.43;;
9409;SDS011;4744;52.576;13.568;2022-12-11T09:28:48;7.97;;;5.97;;
9409;SDS011;4744;52.576;13.568;2022-12-11T09:31:18;8.47;;;5.90;;
9409;SDS011;4744;52.576;13.568;2022-12-11T09:33:48;8.47;;;6.60;;
9409;SDS011;4744;52.576;13.568;2022-12-11T09:36:16;9.03;;;6.90;;
9409;SDS011;4744;52.576;13.568;2022-12-11T09:38:43;8.23;;;6.47;;
9409;SDS011;4744;52.576;13.568;2022-12-11T09:41:25;7.33;;;6.07;;
9409;SDS011;4744;52.576;13.568;2022-12-11T09:44:03;7.87;;;6.53;;
9409;SDS011;4744;52.576;13.568;2022-12-11T09:46:37;8.47;;;6.47;;
9409;SDS011;4744;52.576;13.568;2022-12-11T09:49:10;8.17;;;6.47;;
9409;SDS011;4744;52.576;13.568;2022-12-11T09:51:42;9.27;;;7.33;;
9409;SDS011;4744;52.576;13.568;2022-12-11T09:54:13;9.93;;;6.73;;
9409;SDS011;4744;52.576;13.568;2022-12-11T09:56:41;9.73;;;7.03;;
9409;SDS011;4744;52.576;13.568;2022-12-11T09:59:15;12.13;;;8.10;;
9409;SDS011;4744;52.576;13.568;2022-12-11T10:01:48;8.43;;;7.63;;
9409;SDS011;4744;52.576;13.568;2022-12-11T10:04:33;10.03;;;8.03;;
9409;SDS011;4744;52.576;13.568;2022-12-11T10:07:11;8.40;;;7.10;;
9409;SDS011;4744;52.576;13.568;2022-12-11T10:09:46;10.33;;;8.07;;
9409;SDS011;4744;52.576;13.568;2022-12-11T10:12:23;10.43;;;8.13;;
9409;SDS011;4744;52.576;13.568;2022-12-11T10:15:04;9.97;;;7.83;;
9409;SDS011;4744;52.576;13.568;2022-12-11T10:17:55;9.87;;;8.00;;
9409;SDS011;4744;52.576;13.568;2022-12-11T10:20:24;10.40;;;7.47;;
9409;SDS011;4744;52.576;13.568;2022-12-11T10:22:56;10.33;;;7.47;;
9409;SDS011;4744;52.576;13.568;2022-12-11T10:25:24;8.60;;;7.37;;
9409;SDS011;4744;52.576;13.568;2022-12-11T10:27:54;9.10;;;7.43;;
9409;SDS011;4744;52.576;13.568;2022-12-11T10:30:23;8.93;;;7.73;;
9409;SDS011;4744;52.576;13.568;2022-12-11T10:32:56;11.40;;;7.37;;
9409;SDS011;4744;52.576;13.568;2022-12-11T10:35:32;9.93;;;7.00;;
9409;SDS011;4744;52.576;13.568;2022-12-11T10:38:14;11.17;;;7.57;;
9409;SDS011;4744;52.576;13.568;2022-12-11T10:40:44;9.63;;;7.43;;
9409;SDS011;4744;52.576;13.568;2022-12-11T10:43:14;9.77;;;7.57;;
9409;SDS011;4744;52.576;13.568;2022-12-11T10:45:50;9.60;;;7.37;;
9409;SDS011;4744;52.576;13.568;2022-12-11T10:48:17;8.83;;;7.33;;
9409;SDS011;4744;52.576;13.568;2022-12-11T10:50:53;9.63;;;6.83;;
9409;SDS011;4744;52.576;13.568;2022-12-11T10:53:22;8.33;;;6.67;;
9409;SDS011;4744;52.576;13.568;2022-12-11T10:55:50;8.93;;;7.20;;
9409;SDS011;4744;52.576;13.568;2022-12-11T10:58:18;8.43;;;7.17;;
9409;SDS011;4744;52.576;13.568;2022-12-11T11:00:48;9.80;;;7.43;;
9409;SDS011;4744;52.576;13.568;2022-12-11T11:03:30;8.93;;;6.83;;
9409;SDS011;4744;52.576;13.568;2022-12-11T11:06:03;9.03;;;7.17;;
9409;SDS011;4744;52.576;13.568;2022-12-11T11:08:38;8.57;;;6.50;;
9409;SDS011;4744;52.576;13.568;2022-12-11T11:11:14;8.90;;;7.20;;
9409;SDS011;4744;52.576;13.568;2022-12-11T11:13:47;9.67;;;6.80;;
9409;SDS011;4744;52.576;13.568;2022-12-11T11:16:16;9.67;;;7.20;;
9409;SDS011;4744;52.576;13.568;2022-12-11T11:18:48;8.70;;;6.60;;
9409;SDS011;4744;52.576;13.568;2022-12-11T11:21:18;8.87;;;6.90;;
9409;SDS011;4744;52.576;13.568;2022-12-11T11:23:47;8.43;;;6.57;;
9409;SDS011;4744;52.576;13.568;2022-12-11T11:26:14;8.80;;;7.10;;
9409;SDS011;4744;52.576;13.568;2022-12-11T11:28:45;8.07;;;6.60;;
9409;SDS011;4744;52.576;13.568;2022-12-11T11:31:15;9.10;;;6.83;;
9409;SDS011;4744;52.576;13.568;2022-12-11T11:33:44;8.83;;;7.17;;
9409;SDS011;4744;52.576;13.568;2022-12-11T11:36:20;9.20;;;7.13;;
9409;SDS011;4744;52.576;13.568;2022-12-11T11:38:49;9.27;;;7.33;;
9409;SDS011;4744;52.576;13.568;2022-12-11T11:41:30;7.77;;;6.97;;
9409;SDS011;4744;52.576;13.568;2022-12-11T11:44:03;8.87;;;7.00;;
9409;SDS011;4744;52.576;13.568;2022-12-11T11:46:36;7.93;;;6.60;;
9409;SDS011;4744;52.576;13.568;2022-12-11T11:49:11;9.83;;;7.67;;
9409;SDS011;4744;52.576;13.568;2022-12-11T11:51:45;8.63;;;7.07;;
9409;SDS011;4744;52.576;13.568;2022-12-11T11:54:19;8.57;;;6.43;;
9409;SDS011;4744;52.576;13.568;2022-12-11T11:56:54;9.20;;;6.67;;
9409;SDS011;4744;52.576;13.568;2022-12-11T11:59:23;8.30;;;7.03;;
9409;SDS011;4744;52.576;13.568;2022-12-11T12:01:56;8.47;;;7.00;;
9409;SDS011;4744;52.576;13.568;2022-12-11T12:04:24;9.00;;;6.43;;
9409;SDS011;4744;52.576;13.568;2022-12-11T12:07:10;11.23;;;7.00;;
9409;SDS011;4744;52.576;13.568;2022-12-11T12:09:45;9.97;;;7.40;;
9409;SDS011;4744;52.576;13.568;2022-12-11T12:12:18;9.33;;;7.23;;
9409;SDS011;4744;52.576;13.568;2022-12-11T12:14:58;7.70;;;6.50;;
9409;SDS011;4744;52.576;13.568;2022-12-11T12:17:38;10.07;;;7.23;;
9409;SDS011;4744;52.576;13.568;2022-12-11T12:20:13;8.60;;;6.90;;
9409;SDS011;4744;52.576;13.568;2022-12-11T12:22:51;10.17;;;7.03;;
9409;SDS011;4744;52.576;13.568;2022-12-11T12:25:24;9.13;;;6.80;;
9409;SDS011;4744;52.576;13.568;2022-12-11T12:27:58;8.87;;;6.63;;
9409;SDS011;4744;52.576;13.568;2022-12-11T12:30:35;8.77;;;7.10;;
9409;SDS011;4744;52.576;13.568;2022-12-11T12:33:17;8.77;;;6.90;;
9409;SDS011;4744;52.576;13.568;2022-12-11T12:35:54;8.37;;;6.83;;
9409;SDS011;4744;52.576;13.568;2022-12-11T12:38:29;9.10;;;7.03;;
9409;SDS011;4744;52.576;13.568;2022-12-11T12:41:05;8.80;;;7.30;;
9409;SDS011;4744;52.576;13.568;2022-12-11T12:43:48;10.07;;;7.83;;
9409;SDS011;4744;52.576;13.568;2022-12-11T12:46:26;8.57;;;7.20;;
9409;SDS011;4744;52.576;13.568;2022-12-11T12:49:03;8.30;;;7.13;;
9409;SDS011;4744;52.576;13.568;2022-12-11T12:51:34;8.90;;;6.83;;
9409;SDS011;4744;52.576;13.568;2022-12-11T12:54:02;9.47;;;7.53;;
9409;SDS011;4744;52.576;13.568;2022-12-11T12:56:32;8.43;;;6.00;;
9409;SDS011;4744;52.576;13.568;2022-12-11T12:59:01;13.97;;;7.30;;
9409;SDS011;4744;52.576;13.568;2022-12-11T13:01:28;10.30;;;7.10;;
9409;SDS011;4744;52.576;13.568;2022-12-11T13:03:56;9.47;;;6.90;;
9409;SDS011;4744;52.576;13.568;2022-12-11T13:06:32;8.57;;;6.93;;
9409;SDS011;4744;52.576;13.568;2022-12-11T13:09:14;10.10;;;7.83;;
9409;SDS011;4744;52.576;13.568;2022-12-11T13:11:43;9.83;;;7.33;;
9409;SDS011;4744;52.576;13.568;2022-12-11T13:14:22;8.30;;;7.13;;
9409;SDS011;4744;52.576;13.568;2022-12-11T13:17:03;10.13;;;7.07;;
9409;SDS011;4744;52.576;13.568;2022-12-11T13:19:46;8.40;;;7.00;;
9409;SDS011;4744;52.576;13.568;2022-12-11T13:22:21;8.87;;;7.37;;
9409;SDS011;4744;52.576;13.568;2022-12-11T13:24:56;9.70;;;7.27;;
9409;SDS011;4744;52.576;13.568;2022-12-11T13:27:26;9.43;;;7.30;;
9409;SDS011;4744;52.576;13.568;2022-12-11T13:30:04;10.63;;;7.30;;
9409;SDS011;4744;52.576;13.568;2022-12-11T13:32:32;9.23;;;7.70;;
9409;SDS011;4744;52.576;13.568;2022-12-11T13:35:03;9.97;;;7.33;;
9409;SDS011;4744;52.576;13.568;2022-12-11T13:37:33;9.47;;;7.43;;
9409;SDS011;4744;52.576;13.568;2022-12-11T13:40:04;8.17;;;6.93;;
9409;SDS011;4744;52.576;13.568;2022-12-11T13:42:42;8.57;;;6.97;;
9409;SDS011;4744;52.576;13.568;2022-12-11T13:45:17;9.93;;;6.80;;
9409;SDS011;4744;52.576;13.568;2022-12-11T13:47:47;8.80;;;6.83;;
9409;SDS011;4744;52.576;13.568;2022-12-11T13:50:14;9.83;;;7.33;;
9409;SDS011;4744;52.576;13.568;2022-12-11T13:52:55;8.77;;;6.93;;
9409;SDS011;4744;52.576;13.568;2022-12-11T13:55:24;8.93;;;7.13;;
9409;SDS011;4744;52.576;13.568;2022-12-11T13:57:52;10.63;;;7.73;;
9409;SDS011;4744;52.576;13.568;2022-12-11T14:00:20;9.23;;;7.63;;
9409;SDS011;4744;52.576;13.568;2022-12-11T14:02:48;8.87;;;6.83;;
9409;SDS011;4744;52.576;13.568;2022-12-11T14:05:17;8.43;;;6.93;;
9409;SDS011;4744;52.576;13.568;2022-12-11T14:07:45;9.33;;;7.07;;
9409;SDS011;4744;52.576;13.568;2022-12-11T14:10:17;12.47;;;7.53;;
9409;SDS011;4744;52.576;13.568;2022-12-11T14:12:48;7.97;;;7.07;;
9409;SDS011;4744;52.576;13.568;2022-12-11T14:15:19;9.37;;;7.40;;
9409;SDS011;4744;52.576;13.568;2022-12-11T14:17:46;9.17;;;7.40;;
9409;SDS011;4744;52.576;13.568;2022-12-11T14:20:15;9.20;;;7.30;;
9409;SDS011;4744;52.576;13.568;2022-12-11T14:22:45;12.07;;;8.37;;
9409;SDS011;4744;52.576;13.568;2022-12-11T14:25:17;11.53;;;7.60;;
9409;SDS011;4744;52.576;13.568;2022-12-11T14:27:47;8.70;;;7.20;;
9409;SDS011;4744;52.576;13.568;2022-12-11T14:30:19;8.97;;;7.00;;
9409;SDS011;4744;52.576;13.568;2022-12-11T14:32:47;10.03;;;7.30;;
9409;SDS011;4744;52.576;13.568;2022-12-11T14:35:17;9.17;;;7.80;;
9409;SDS011;4744;52.576;13.568;2022-12-11T14:37:50;9.20;;;7.13;;
9409;SDS011;4744;52.576;13.568;2022-12-11T14:40:21;9.67;;;7.50;;
9409;SDS011;4744;52.576;13.568;2022-12-11T14:42:53;10.27;;;7.87;;
9409;SDS011;4744;52.576;13.568;2022-12-11T14:45:25;8.93;;;7.43;;
9409;SDS011;4744;52.576;13.568;2022-12-11T14:47:57;10.77;;;7.90;;
9409;SDS011;4744;52.576;13.568;2022-12-11T14:50:28;11.67;;;7.67;;
9409;SDS011;4744;52.576;13.568;2022-12-11T14:53:02;11.17;;;7.77;;
9409;SDS011;4744;52.576;13.568;2022-12-11T14:55:34;10.73;;;7.83;;
9409;SDS011;4744;52.576;13.568;2022-12-11T14:58:04;9.87;;;7.97;;
9409;SDS011;4744;52.576;13.568;2022-12-11T15:00:38;9.20;;;7.10;;
9409;SDS011;4744;52.576;13.568;2022-12-11T15:03:06;11.13;;;8.50;;
9409;SDS011;4744;52.576;13.568;2022-12-11T15:05:47;9.73;;;8.07;;
9409;SDS011;4744;52.576;13.568;2022-12-11T15:08:16;9.97;;;8.17;;
9409;SDS011;4744;52.576;13.568;2022-12-11T15:11:01;10.77;;;8.47;;
9409;SDS011;4744;52.576;13.568;2022-12-11T15:13:31;10.63;;;8.20;;
9409;SDS011;4744;52.576;13.568;2022-12-11T15:15:59;9.73;;;8.37;;
9409;SDS011;4744;52.576;13.568;2022-12-11T15:18:28;10.63;;;7.80;;